Model City, NY

6:38 AM EST on February 08, 2016 (GMT -0500)
Tall Oaks Subdivision- Town of Lewiston, NY | | Change Station
CLOSE
Current Station
Personal Weather Station
Location: Lewiston, NY
Elevation: 355 ft
Nearby Weather Stations

Elev 355 ft 43.18 °N, 79.04 °W | Updated 27 seconds ago

Mostly Cloudy
Mostly Cloudy
37.8 °F
Feels Like 38 °F
N
0.0
Wind Variable Wind from North
Gusts 0.0 mph

Today
High -- | Low -- °F
--% Chance of Precip.
Yesterday
High -- | Low -- °F
Precip. -- in
Pressure 29.73 in
Visibility 10.0 miles
Clouds Clear
Windchill 38 °F
Dew Point 28 °F
Humidity 67%
Rainfall 0.00 in
Snow Depth Not available.
7:23 AM 5:36 PM
Waning Crescent, 0% visible
METAR KIAG 081053Z AUTO 10005KT 10SM CLR 03/M03 A2969 RMK AO2 SLP065 T00281028
Pressure 29.73 in
Visibility 10.0 miles
Clouds Clear
Windchill 38 °F
Dew Point 28 °F
Humidity 67%
Rainfall 0.00 in
Snow Depth Not available.
7:23 AM 5:36 PM
Waning Crescent, 0% visible
METAR KIAG 081053Z AUTO 10005KT 10SM CLR 03/M03 A2969 RMK AO2 SLP065 T00281028

10-Day Weather Forecast

Almanac

Astronomy

Feb. 08, 2016 Rise Set
Actual Time
Civil Twilight
Nautical Twilight
Astronomical Twilight
Moon
Length of Visible Light
Length of Day
Tomorrow will be .
, % of the Moon is Illuminated

Today's Extremes

State Highs State Lows

Community

WunderPhotos

Upload Photos

1,891,420 photos uploaded!

WunderBlog® & News

Nearby

Air Quality

  Air Quality AQ Index Pollutant
Not available.

Snow Depth

Station Depth Elevation

Earthquake Activity

City Distance Mag. Time & Date
Minimum magnitude displayed is 2.5.

Coastal Water Temperatures

Place Temperature

Stations

Nearby Weather Stations

Station Location Temp. Windchill Dew Point Humidity Wind Precip. Elev Updated Type
                   

Watches & Warnings

There are currently no watches in effect.